^^
Station Historical Data
Daily Summary for January 27, 2021 Units:  English    Metric   Both
Daily Weekly Monthly Yearly
  High: Low: Average:
Temperature: 25.6 °F 17.3 °F 20.9 °F
Dew Point: 17.7 °F 11.6 °F 14.7 °F
Humidity: 84% 67% 77%
Wind Speed: 7mph 1mph 3.9mph
Wind Gust: 14mph - -
Wind- - West
Pressure: 30.44 in 30.13 in -
Precipitation: 0.00 in    
 
 
Tabular Data for January 27, 2021
Time Temperature Dew Point Pressure Wind Wind Speed Wind Gust Humidity Rainfall Rate (Hourly) solar
00:00 21.2 °F 16.6 °F 30.13 in NNE 4 mph 8 mph 82% 0.00 in 0 W/m2
00:05 21 °F 16.6 °F 30.13 in NW 4 mph 8 mph 83% 0.00 in 0 W/m2
00:10 20.9 °F 16.5 °F 30.13 in NW 5 mph 5 mph 83% 0.00 in 0 W/m2
00:15 20.8 °F 16.2 °F 30.13 in North 5 mph 10 mph 82% 0.00 in 0 W/m2
00:20 20.7 °F 16.4 °F 30.14 in North 5 mph 5 mph 83% 0.00 in 0 W/m2
00:25 20.6 °F 16.3 °F 30.14 in North 5 mph 5 mph 83% 0.00 in 0 W/m2
00:30 20.5 °F 16.2 °F 30.14 in NNW 5 mph 5 mph 83% 0.00 in 0 W/m2
00:35 20.5 °F 16.2 °F 30.14 in NW 5 mph 5 mph 83% 0.00 in 0 W/m2
00:40 20.4 °F 16.1 °F 30.14 in North 5 mph 5 mph 83% 0.00 in 0 W/m2
00:45 20.3 °F 16 °F 30.14 in North 5 mph 8 mph 83% 0.00 in 0 W/m2
00:50 20.3 °F 16 °F 30.15 in North 6 mph 6 mph 83% 0.00 in 0 W/m2
00:55 20.3 °F 16 °F 30.15 in NW 5 mph 10 mph 83% 0.00 in 0 W/m2
01:00 20.3 °F 16 °F 30.15 in North 5 mph 5 mph 83% 0.00 in 0 W/m2
01:05 20.2 °F 15.9 °F 30.15 in NE 5 mph 5 mph 83% 0.00 in 0 W/m2
01:10 20.2 °F 15.9 °F 30.16 in NW 5 mph 5 mph 83% 0.00 in 0 W/m2
01:15 20.2 °F 15.6 °F 30.16 in North 5 mph 9 mph 82% 0.00 in 0 W/m2
01:20 20 °F 15.4 °F 30.16 in NW 5 mph 6 mph 82% 0.00 in 0 W/m2
01:25 19.9 °F 15.3 °F 30.16 in NW 4 mph 6 mph 82% 0.00 in 0 W/m2
01:30 19.8 °F 15.2 °F 30.17 in NNW 4 mph 4 mph 82% 0.00 in 0 W/m2
01:35 19.7 °F 15.1 °F 30.17 in North 5 mph 5 mph 82% 0.00 in 0 W/m2
01:40 19.7 °F 15.1 °F 30.17 in WNW 5 mph 7 mph 82% 0.00 in 0 W/m2
01:45 19.5 °F 14.9 °F 30.17 in NNW 5 mph 8 mph 82% 0.00 in 0 W/m2
01:50 19.5 °F 14.9 °F 30.17 in NNE 4 mph 9 mph 82% 0.00 in 0 W/m2
01:55 19.4 °F 14.8 °F 30.17 in NW 4 mph 9 mph 82% 0.00 in 0 W/m2
02:00 19.3 °F 14.7 °F 30.18 in North 5 mph 5 mph 82% 0.00 in 0 W/m2
02:05 19.2 °F 14.6 °F 30.18 in WNW 4 mph 5 mph 82% 0.00 in 0 W/m2
02:10 19.2 °F 14.6 °F 30.18 in NW 4 mph 4 mph 82% 0.00 in 0 W/m2
02:15 19.1 °F 14.5 °F 30.19 in North 4 mph 4 mph 82% 0.00 in 0 W/m2
02:20 19.2 °F 14.6 °F 30.19 in NW 5 mph 14 mph 82% 0.00 in 0 W/m2
02:25 19.2 °F 14.6 °F 30.19 in WNW 5 mph 14 mph 82% 0.00 in 0 W/m2
02:30 19.2 °F 14.6 °F 30.19 in NW 5 mph 5 mph 82% 0.00 in 0 W/m2
02:35 19.1 °F 14.5 °F 30.19 in WNW 5 mph 5 mph 82% 0.00 in 0 W/m2
02:40 19.1 °F 14.5 °F 30.19 in NNW 5 mph 5 mph 82% 0.00 in 0 W/m2
02:45 19.1 °F 14.5 °F 30.20 in NNW 5 mph 6 mph 82% 0.00 in 0 W/m2
02:50 19.1 °F 14.2 °F 30.21 in North 5 mph 5 mph 81% 0.00 in 0 W/m2
02:55 19 °F 14.1 °F 30.21 in NNW 5 mph 5 mph 81% 0.00 in 0 W/m2
03:00 18.9 °F 14 °F 30.22 in NW 4 mph 4 mph 81% 0.00 in 0 W/m2
03:05 18.8 °F 13.9 °F 30.22 in NW 4 mph 4 mph 81% 0.00 in 0 W/m2
03:10 18.8 °F 13.9 °F 30.22 in NNW 4 mph 5 mph 81% 0.00 in 0 W/m2
03:15 18.7 °F 14.1 °F 30.22 in WNW 4 mph 5 mph 82% 0.00 in 0 W/m2
03:20 18.7 °F 13.8 °F 30.23 in NW 5 mph 5 mph 81% 0.00 in 0 W/m2
03:25 18.7 °F 13.8 °F 30.23 in NW 5 mph 5 mph 81% 0.00 in 0 W/m2
03:30 18.6 °F 13.7 °F 30.23 in North 4 mph 5 mph 81% 0.00 in 0 W/m2
03:35 18.6 °F 13.7 °F 30.23 in WNW 4 mph 5 mph 81% 0.00 in 0 W/m2
03:40 18.5 °F 13.6 °F 30.23 in NE 4 mph 10 mph 81% 0.00 in 0 W/m2
03:45 18.5 °F 13.6 °F 30.24 in NNW 4 mph 10 mph 81% 0.00 in 0 W/m2
03:50 18.5 °F 13.6 °F 30.24 in WNW 4 mph 4 mph 81% 0.00 in 0 W/m2
03:55 18.4 °F 13.8 °F 30.24 in NW 3 mph 4 mph 82% 0.00 in 0 W/m2
04:00 18.4 °F 13.8 °F 30.24 in NNW 3 mph 3 mph 82% 0.00 in 0 W/m2
04:05 18.4 °F 13.8 °F 30.25 in WNW 3 mph 3 mph 82% 0.00 in 0 W/m2
04:10 18.4 °F 13.8 °F 30.25 in NNW 4 mph 4 mph 82% 0.00 in 0 W/m2
04:15 18.4 °F 13.8 °F 30.25 in North 3 mph 5 mph 82% 0.00 in 0 W/m2
04:20 18.6 °F 14 °F 30.26 in NW 3 mph 3 mph 82% 0.00 in 0 W/m2
04:25 18.7 °F 14.1 °F 30.26 in NNW 3 mph 4 mph 82% 0.00 in 0 W/m2
04:30 18.7 °F 14.1 °F 30.25 in NW 3 mph 3 mph 82% 0.00 in 0 W/m2
04:35 18.8 °F 14.2 °F 30.26 in North 3 mph 3 mph 82% 0.00 in 0 W/m2
04:40 18.8 °F 14.2 °F 30.26 in WNW 3 mph 4 mph 82% 0.00 in 0 W/m2
04:45 18.9 °F 14.3 °F 30.26 in NNW 4 mph 4 mph 82% 0.00 in 0 W/m2
04:50 18.8 °F 14.2 °F 30.26 in NNE 4 mph 4 mph 82% 0.00 in 0 W/m2
04:55 18.8 °F 13.9 °F 30.26 in NW 3 mph 4 mph 81% 0.00 in 0 W/m2
05:00 18.8 °F 13.9 °F 30.26 in WNW 3 mph 4 mph 81% 0.00 in 0 W/m2
05:05 18.7 °F 13.8 °F 30.26 in NW 3 mph 4 mph 81% 0.00 in 0 W/m2
05:10 18.7 °F 13.8 °F 30.27 in NNW 2 mph 4 mph 81% 0.00 in 0 W/m2
05:15 18.7 °F 13.8 °F 30.27 in West 2 mph 4 mph 81% 0.00 in 0 W/m2
05:20 18.6 °F 13.7 °F 30.27 in WNW 3 mph 3 mph 81% 0.00 in 0 W/m2
05:25 18.5 °F 13.6 °F 30.27 in NNW 3 mph 3 mph 81% 0.00 in 0 W/m2
05:30 18.5 °F 13.6 °F 30.27 in NW 3 mph 8 mph 81% 0.00 in 0 W/m2
05:35 18.4 °F 13.3 °F 30.27 in NNW 3 mph 8 mph 80% 0.00 in 0 W/m2
05:40 18.3 °F 13.2 °F 30.27 in NNW 3 mph 3 mph 80% 0.00 in 0 W/m2
05:45 18.3 °F 13.2 °F 30.27 in NNW 2 mph 3 mph 80% 0.00 in 0 W/m2
05:50 18.2 °F 13.1 °F 30.27 in NW 2 mph 3 mph 80% 0.00 in 0 W/m2
05:55 18.1 °F 13 °F 30.28 in NNW 2 mph 4 mph 80% 0.00 in 0 W/m2
06:00 18 °F 12.9 °F 30.27 in East 3 mph 3 mph 80% 0.00 in 0 W/m2
06:05 18 °F 12.9 °F 30.28 in North 3 mph 3 mph 80% 0.00 in 0 W/m2
06:10 18.1 °F 13 °F 30.28 in WNW 2 mph 5 mph 80% 0.00 in 0 W/m2
06:15 18 °F 12.9 °F 30.28 in NNW 2 mph 5 mph 80% 0.00 in 0 W/m2
06:20 18.1 °F 13 °F 30.28 in NNW 2 mph 2 mph 80% 0.00 in 0 W/m2
06:25 18.1 °F 13.3 °F 30.28 in NW 2 mph 4 mph 81% 0.00 in 0 W/m2
06:30 18.2 °F 13.3 °F 30.28 in WNW 3 mph 3 mph 81% 0.00 in 0 W/m2
06:35 18.3 °F 13.4 °F 30.28 in WNW 4 mph 4 mph 81% 0.00 in 0 W/m2
06:40 18.3 °F 13.4 °F 30.28 in NW 3 mph 3 mph 81% 0.00 in 0 W/m2
06:45 18.4 °F 13.5 °F 30.28 in NNW 3 mph 3 mph 81% 0.00 in 0 W/m2
06:50 18.4 °F 13.5 °F 30.29 in NNW 3 mph 3 mph 81% 0.00 in 0 W/m2
06:55 18.2 °F 13.3 °F 30.29 in NW 3 mph 4 mph 81% 0.00 in 0 W/m2
07:00 18.2 °F 13.3 °F 30.29 in NW 2 mph 4 mph 81% 0.00 in 0 W/m2
07:05 18.1 °F 13.3 °F 30.29 in North 2 mph 4 mph 81% 0.00 in 0 W/m2
07:10 18 °F 13.2 °F 30.28 in NNW 3 mph 3 mph 81% 0.00 in 0 W/m2
07:15 18 °F 13.2 °F 30.29 in WNW 3 mph 3 mph 81% 0.00 in 0 W/m2
07:20 17.9 °F 13.3 °F 30.28 in NW 2 mph 2 mph 82% 0.00 in 0 W/m2
07:25 17.8 °F 13.2 °F 30.29 in NW 2 mph 2 mph 82% 0.00 in 0 W/m2
07:30 17.7 °F 13.1 °F 30.29 in NNW 2 mph 2 mph 82% 0.00 in 0 W/m2
07:35 17.6 °F 13 °F 30.29 in North 1 mph 2 mph 82% 0.00 in 0 W/m2
07:40 17.5 °F 12.9 °F 30.29 in WNW 2 mph 2 mph 82% 0.00 in 0 W/m2
07:45 17.4 °F 12.8 °F 30.29 in NNW 2 mph 2 mph 82% 0.00 in 5 W/m2
07:50 17.3 °F 12.7 °F 30.29 in North 1 mph 1 mph 82% 0.00 in 7 W/m2
07:55 17.3 °F 13 °F 30.29 in NW 1 mph 3 mph 83% 0.00 in 11 W/m2
08:00 17.3 °F 13 °F 30.29 in WNW 3 mph 3 mph 83% 0.00 in 14 W/m2
08:05 17.4 °F 13.1 °F 30.29 in North 4 mph 8 mph 83% 0.00 in 21 W/m2
08:10 17.5 °F 13.2 °F 30.29 in NW 3 mph 3 mph 83% 0.00 in 23 W/m2
08:15 17.7 °F 13.4 °F 30.29 in North 3 mph 3 mph 83% 0.00 in 30 W/m2
08:20 17.9 °F 13.9 °F 30.29 in NNW 3 mph 3 mph 84% 0.00 in 32 W/m2
08:25 18.1 °F 14.1 °F 30.29 in North 3 mph 8 mph 84% 0.00 in 33 W/m2
08:30 18.3 °F 14.3 °F 30.30 in North 4 mph 4 mph 84% 0.00 in 33 W/m2
08:35 18.5 °F 14.5 °F 30.30 in NW 4 mph 8 mph 84% 0.00 in 39 W/m2
08:40 18.7 °F 14.4 °F 30.30 in NNW 5 mph 8 mph 83% 0.00 in 53 W/m2
08:45 18.8 °F 14.5 °F 30.30 in NNE 5 mph 8 mph 83% 0.00 in 65 W/m2
08:50 18.9 °F 14.6 °F 30.29 in NNE 5 mph 5 mph 83% 0.00 in 77 W/m2
08:55 19.1 °F 14.5 °F 30.29 in North 4 mph 5 mph 82% 0.00 in 83 W/m2
09:00 19.1 °F 14.2 °F 30.29 in NNW 4 mph 5 mph 81% 0.00 in 91 W/m2
09:05 19.1 °F 14.2 °F 30.28 in NW 5 mph 9 mph 81% 0.00 in 95 W/m2
09:10 19.2 °F 14 °F 30.28 in WNW 5 mph 5 mph 80% 0.00 in 102 W/m2
09:15 19.3 °F 14.1 °F 30.28 in North 4 mph 5 mph 80% 0.00 in 120 W/m2
09:20 19.5 °F 14.3 °F 30.29 in NNE 4 mph 4 mph 80% 0.00 in 160 W/m2
09:25 19.8 °F 14.6 °F 30.29 in NNW 5 mph 6 mph 80% 0.00 in 146 W/m2
09:30 20 °F 14.8 °F 30.29 in North 5 mph 5 mph 80% 0.00 in 149 W/m2
09:35 20.2 °F 14.7 °F 30.29 in NNE 5 mph 7 mph 79% 0.00 in 144 W/m2
09:40 20.3 °F 15.1 °F 30.29 in North 5 mph 5 mph 80% 0.00 in 163 W/m2
09:45 20.5 °F 15.3 °F 30.30 in North 4 mph 5 mph 80% 0.00 in 153 W/m2
09:50 21 °F 15.2 °F 30.30 in NW 5 mph 5 mph 78% 0.00 in 209 W/m2
09:55 21.4 °F 15.6 °F 30.30 in North 5 mph 11 mph 78% 0.00 in 253 W/m2
10:00 21.6 °F 15.8 °F 30.30 in North 6 mph 6 mph 78% 0.00 in 243 W/m2
10:05 21.8 °F 15.7 °F 30.31 in NNW 6 mph 6 mph 77% 0.00 in 163 W/m2
10:10 21.8 °F 16 °F 30.31 in NNE 5 mph 5 mph 78% 0.00 in 163 W/m2
10:15 21.8 °F 16 °F 30.32 in NNW 5 mph 5 mph 78% 0.00 in 241 W/m2
10:20 22 °F 15.9 °F 30.32 in North 5 mph 5 mph 77% 0.00 in 207 W/m2
10:25 22.3 °F 16.2 °F 30.32 in NNW 4 mph 5 mph 77% 0.00 in 218 W/m2
10:30 22.1 °F 16 °F 30.33 in NNW 4 mph 8 mph 77% 0.00 in 200 W/m2
10:35 21.7 °F 15.6 °F 30.33 in NNE 4 mph 8 mph 77% 0.00 in 234 W/m2
10:40 21.8 °F 16 °F 30.33 in NNW 5 mph 12 mph 78% 0.00 in 290 W/m2
10:45 21.8 °F 15.7 °F 30.33 in North 5 mph 12 mph 77% 0.00 in 211 W/m2
10:50 21.7 °F 15.9 °F 30.33 in NW 5 mph 5 mph 78% 0.00 in 220 W/m2
10:55 21.8 °F 16 °F 30.34 in NW 5 mph 5 mph 78% 0.00 in 304 W/m2
11:00 21.9 °F 16.1 °F 30.34 in NNW 4 mph 4 mph 78% 0.00 in 272 W/m2
11:05 22 °F 16.2 °F 30.34 in NW 4 mph 8 mph 78% 0.00 in 258 W/m2
11:10 22.1 °F 16.3 °F 30.33 in North 5 mph 5 mph 78% 0.00 in 313 W/m2
11:15 22.6 °F 16.8 °F 30.34 in NNW 4 mph 5 mph 78% 0.00 in 396 W/m2
11:20 22.3 °F 16.2 °F 30.33 in NNW 4 mph 4 mph 77% 0.00 in 241 W/m2
11:25 22.3 °F 16.2 °F 30.34 in NW 4 mph 5 mph 77% 0.00 in 325 W/m2
11:30 22.6 °F 16.5 °F 30.34 in North 5 mph 5 mph 77% 0.00 in 459 W/m2
11:35 22.6 °F 16.5 °F 30.34 in NNW 4 mph 5 mph 77% 0.00 in 385 W/m2
11:40 22.5 °F 16.1 °F 30.34 in North 4 mph 4 mph 76% 0.00 in 422 W/m2
11:45 22.6 °F 16.5 °F 30.34 in North 4 mph 4 mph 77% 0.00 in 396 W/m2
11:50 22.7 °F 16.3 °F 30.34 in NNW 5 mph 5 mph 76% 0.00 in 348 W/m2
11:55 22.6 °F 16.5 °F 30.34 in NNW 5 mph 5 mph 77% 0.00 in 385 W/m2
12:00 22.9 °F 16.8 °F 30.34 in NNE 4 mph 4 mph 77% 0.00 in 446 W/m2
12:05 23.3 °F 16.9 °F 30.34 in NNW 4 mph 4 mph 76% 0.00 in 406 W/m2
12:10 23.5 °F 17 °F 30.33 in NNW 3 mph 3 mph 76% 0.00 in 427 W/m2
12:15 23.5 °F 17 °F 30.33 in NW 4 mph 4 mph 76% 0.00 in 494 W/m2
12:20 23.6 °F 16.8 °F 30.33 in WNW 3 mph 3 mph 75% 0.00 in 489 W/m2
12:25 23.5 °F 17 °F 30.33 in NNW 3 mph 3 mph 76% 0.00 in 492 W/m2
12:30 23.6 °F 16.8 °F 30.32 in North 4 mph 5 mph 75% 0.00 in 494 W/m2
12:35 23.4 °F 16.6 °F 30.32 in NW 4 mph 5 mph 75% 0.00 in 496 W/m2
12:40 24 °F 17.2 °F 30.32 in NNE 4 mph 5 mph 75% 0.00 in 497 W/m2
12:45 24.2 °F 17.7 °F 30.32 in NW 3 mph 5 mph 76% 0.00 in 497 W/m2
12:50 24 °F 17.2 °F 30.32 in NNW 4 mph 6 mph 75% 0.00 in 487 W/m2
12:55 24.3 °F 17.5 °F 30.31 in WNW 4 mph 8 mph 75% 0.00 in 501 W/m2
13:00 24.3 °F 17.5 °F 30.31 in NNW 4 mph 4 mph 75% 0.00 in 380 W/m2
13:05 24.1 °F 16.7 °F 30.31 in NE 4 mph 4 mph 73% 0.00 in 519 W/m2
13:10 24.2 °F 16.8 °F 30.31 in NNW 3 mph 6 mph 73% 0.00 in 258 W/m2
13:15 24.5 °F 17.1 °F 30.31 in North 3 mph 6 mph 73% 0.00 in 425 W/m2
13:20 24.8 °F 17.1 °F 30.31 in North 4 mph 4 mph 72% 0.00 in 512 W/m2
13:25 25 °F 17.2 °F 30.31 in North 4 mph 4 mph 72% 0.00 in 448 W/m2
13:30 25 °F 16.9 °F 30.31 in WNW 4 mph 4 mph 71% 0.00 in 432 W/m2
13:35 24.9 °F 16.5 °F 30.31 in North 4 mph 11 mph 70% 0.00 in 374 W/m2
13:40 24.9 °F 16.8 °F 30.31 in NNW 4 mph 6 mph 71% 0.00 in 323 W/m2
13:45 25.2 °F 16.8 °F 30.31 in NNW 3 mph 6 mph 70% 0.00 in 302 W/m2
13:50 25.1 °F 16.7 °F 30.31 in NW 3 mph 4 mph 70% 0.00 in 311 W/m2
13:55 25.2 °F 16.5 °F 30.31 in NNW 4 mph 8 mph 69% 0.00 in 264 W/m2
14:00 25.1 °F 16.7 °F 30.31 in North 5 mph 5 mph 70% 0.00 in 454 W/m2
14:05 24.7 °F 16.3 °F 30.31 in NNW 5 mph 5 mph 70% 0.00 in 394 W/m2
14:10 24.8 °F 17.1 °F 30.30 in NNW 4 mph 4 mph 72% 0.00 in 499 W/m2
14:15 25 °F 16.9 °F 30.30 in NNW 3 mph 4 mph 71% 0.00 in 469 W/m2
14:20 24.7 °F 16.3 °F 30.30 in NNE 3 mph 4 mph 70% 0.00 in 404 W/m2
14:25 25.1 °F 17 °F 30.30 in North 3 mph 4 mph 71% 0.00 in 190 W/m2
14:30 25.2 °F 16.5 °F 30.30 in NW 3 mph 4 mph 69% 0.00 in 264 W/m2
14:35 25.2 °F 16.8 °F 30.30 in North 4 mph 4 mph 70% 0.00 in 316 W/m2
14:40 24.8 °F 16.7 °F 30.30 in NNW 3 mph 9 mph 71% 0.00 in 172 W/m2
14:45 24.3 °F 16.2 °F 30.30 in NNW 3 mph 9 mph 71% 0.00 in 232 W/m2
14:50 24.4 °F 16 °F 30.30 in North 4 mph 4 mph 70% 0.00 in 366 W/m2
14:55 24.5 °F 16.1 °F 30.30 in North 4 mph 10 mph 70% 0.00 in 299 W/m2
15:00 25 °F 16.6 °F 30.30 in NNW 4 mph 4 mph 70% 0.00 in 183 W/m2
15:05 24.4 °F 16 °F 30.31 in North 4 mph 6 mph 70% 0.00 in 128 W/m2
15:10 24.4 °F 16.3 °F 30.31 in North 4 mph 4 mph 71% 0.00 in 295 W/m2
15:15 24.7 °F 16.3 °F 30.31 in NNE 3 mph 10 mph 70% 0.00 in 144 W/m2
15:20 23.9 °F 15.2 °F 30.31 in NNW 3 mph 5 mph 69% 0.00 in 91 W/m2
15:25 24.3 °F 16.6 °F 30.31 in NNW 4 mph 9 mph 72% 0.00 in 306 W/m2
15:30 24.9 °F 16.5 °F 30.31 in ENE 4 mph 4 mph 70% 0.00 in 237 W/m2
15:35 24.5 °F 15.8 °F 30.31 in North 4 mph 4 mph 69% 0.00 in 162 W/m2
15:40 24.7 °F 16.3 °F 30.31 in NNW 4 mph 6 mph 70% 0.00 in 309 W/m2
15:45 25.6 °F 16.2 °F 30.31 in NNE 4 mph 6 mph 67% 0.00 in 339 W/m2
15:50 25 °F 15.6 °F 30.31 in NNW 5 mph 5 mph 67% 0.00 in 134 W/m2
15:55 24.4 °F 15.3 °F 30.32 in NNW 4 mph 5 mph 68% 0.00 in 146 W/m2
16:00 24 °F 15.3 °F 30.32 in North 4 mph 4 mph 69% 0.00 in 130 W/m2
16:05 23.8 °F 15.1 °F 30.32 in North 4 mph 4 mph 69% 0.00 in 113 W/m2
16:10 23.7 °F 15 °F 30.32 in North 3 mph 3 mph 69% 0.00 in 107 W/m2
16:15 23.8 °F 15.4 °F 30.32 in NNW 2 mph 3 mph 70% 0.00 in 93 W/m2
16:20 23.8 °F 15.4 °F 30.32 in North 2 mph 3 mph 70% 0.00 in 98 W/m2
16:25 23.8 °F 15.4 °F 30.32 in North 2 mph 5 mph 70% 0.00 in 91 W/m2
16:30 23.6 °F 15.2 °F 30.33 in NNW 3 mph 4 mph 70% 0.00 in 91 W/m2
16:35 23.6 °F 15.6 °F 30.33 in NNW 2 mph 4 mph 71% 0.00 in 77 W/m2
16:40 23.6 °F 15.6 °F 30.33 in North 2 mph 2 mph 71% 0.00 in 70 W/m2
16:45 23.7 °F 16 °F 30.33 in NNW 3 mph 3 mph 72% 0.00 in 67 W/m2
16:50 23.5 °F 15.8 °F 30.33 in North 3 mph 3 mph 72% 0.00 in 56 W/m2
16:55 23.5 °F 15.5 °F 30.33 in NNW 3 mph 3 mph 71% 0.00 in 60 W/m2
17:00 23.4 °F 16 °F 30.33 in NNE 2 mph 2 mph 73% 0.00 in 46 W/m2
17:05 23.3 °F 16.2 °F 30.33 in NE 2 mph 3 mph 74% 0.00 in 28 W/m2
17:10 23.1 °F 16 °F 30.34 in NE 2 mph 2 mph 74% 0.00 in 21 W/m2
17:15 23 °F 15.6 °F 30.34 in North 3 mph 4 mph 73% 0.00 in 14 W/m2
17:20 22.8 °F 15.4 °F 30.34 in NNE 2 mph 2 mph 73% 0.00 in 11 W/m2
17:25 22.7 °F 15.3 °F 30.34 in North 2 mph 2 mph 73% 0.00 in 9 W/m2
17:30 22.7 °F 15.3 °F 30.34 in NNW 3 mph 3 mph 73% 0.00 in 7 W/m2
17:35 22.6 °F 15.6 °F 30.34 in NW 3 mph 3 mph 74% 0.00 in 5 W/m2
17:40 22.6 °F 15.6 °F 30.34 in NNE 2 mph 2 mph 74% 0.00 in 0 W/m2
17:45 22.6 °F 15.6 °F 30.34 in NW 2 mph 2 mph 74% 0.00 in 0 W/m2
17:50 22.6 °F 15.6 °F 30.35 in ESE 2 mph 2 mph 74% 0.00 in 0 W/m2
17:55 22.7 °F 15.7 °F 30.35 in NNW 2 mph 2 mph 74% 0.00 in 0 W/m2
18:00 22.7 °F 15.7 °F 30.35 in NNW 2 mph 2 mph 74% 0.00 in 0 W/m2
18:05 22.6 °F 15.6 °F 30.35 in NNW 2 mph 2 mph 74% 0.00 in 0 W/m2
18:10 22.7 °F 15.7 °F 30.35 in NW 3 mph 4 mph 74% 0.00 in 0 W/m2
18:15 22.7 °F 16 °F 30.35 in NE 3 mph 4 mph 75% 0.00 in 0 W/m2
18:20 22.6 °F 15.9 °F 30.36 in North 3 mph 5 mph 75% 0.00 in 0 W/m2
18:25 22.7 °F 15.3 °F 30.36 in NNE 3 mph 5 mph 73% 0.00 in 0 W/m2
18:30 22.6 °F 15.2 °F 30.36 in NNW 3 mph 3 mph 73% 0.00 in 0 W/m2
18:35 22.5 °F 15.1 °F 30.36 in NNW 3 mph 3 mph 73% 0.00 in 0 W/m2
18:40 22.5 °F 14.5 °F 30.36 in NNW 4 mph 4 mph 71% 0.00 in 0 W/m2
18:45 22.4 °F 14.4 °F 30.36 in NNW 4 mph 4 mph 71% 0.00 in 0 W/m2
18:50 22.4 °F 14.4 °F 30.36 in North 4 mph 4 mph 71% 0.00 in 0 W/m2
18:55 22.4 °F 14.7 °F 30.37 in North 3 mph 4 mph 72% 0.00 in 0 W/m2
19:00 22.3 °F 14.3 °F 30.37 in NW 3 mph 3 mph 71% 0.00 in 0 W/m2
19:05 22.3 °F 14.6 °F 30.37 in NNW 3 mph 3 mph 72% 0.00 in 0 W/m2
19:10 22.1 °F 14.1 °F 30.37 in North 4 mph 5 mph 71% 0.00 in 0 W/m2
19:15 22 °F 14 °F 30.37 in NW 4 mph 5 mph 71% 0.00 in 0 W/m2
19:20 21.9 °F 13.9 °F 30.37 in WNW 4 mph 4 mph 71% 0.00 in 0 W/m2
19:25 21.8 °F 14.5 °F 30.37 in North 3 mph 7 mph 73% 0.00 in 0 W/m2
19:30 21.8 °F 14.5 °F 30.37 in NNW 3 mph 3 mph 73% 0.00 in 0 W/m2
19:35 21.7 °F 14.4 °F 30.38 in NW 4 mph 8 mph 73% 0.00 in 0 W/m2
19:40 21.7 °F 14.7 °F 30.38 in North 4 mph 4 mph 74% 0.00 in 0 W/m2
19:45 21.6 °F 14.3 °F 30.38 in ENE 4 mph 4 mph 73% 0.00 in 0 W/m2
19:50 21.5 °F 13.9 °F 30.38 in WNW 4 mph 4 mph 72% 0.00 in 0 W/m2
19:55 21.5 °F 14.2 °F 30.38 in NNW 5 mph 5 mph 73% 0.00 in 0 W/m2
20:00 21.4 °F 13.8 °F 30.38 in NNW 5 mph 10 mph 72% 0.00 in 0 W/m2
20:05 21.3 °F 13.7 °F 30.38 in NNW 5 mph 10 mph 72% 0.00 in 0 W/m2
20:10 21.1 °F 13.2 °F 30.38 in NNW 5 mph 5 mph 71% 0.00 in 0 W/m2
20:15 21 °F 13.4 °F 30.38 in NW 5 mph 5 mph 72% 0.00 in 0 W/m2
20:20 21 °F 13.1 °F 30.38 in NW 5 mph 5 mph 71% 0.00 in 0 W/m2
20:25 20.9 °F 13 °F 30.38 in WNW 5 mph 5 mph 71% 0.00 in 0 W/m2
20:30 20.8 °F 13.2 °F 30.38 in NW 4 mph 4 mph 72% 0.00 in 0 W/m2
20:35 20.7 °F 13.1 °F 30.38 in NE 5 mph 9 mph 72% 0.00 in 0 W/m2
20:40 20.7 °F 13.4 °F 30.38 in NNW 5 mph 8 mph 73% 0.00 in 0 W/m2
20:45 20.7 °F 13.7 °F 30.38 in North 5 mph 8 mph 74% 0.00 in 0 W/m2
20:50 20.6 °F 13.6 °F 30.39 in NW 5 mph 10 mph 74% 0.00 in 0 W/m2
20:55 20.5 °F 13.5 °F 30.39 in NNW 6 mph 10 mph 74% 0.00 in 0 W/m2
21:00 20.3 °F 13.3 °F 30.39 in NW 7 mph 8 mph 74% 0.00 in 0 W/m2
21:05 20.2 °F 13.2 °F 30.39 in NNW 6 mph 8 mph 74% 0.00 in 0 W/m2
21:10 20.1 °F 13.1 °F 30.39 in NNW 5 mph 10 mph 74% 0.00 in 0 W/m2
21:15 20 °F 13 °F 30.39 in North 5 mph 11 mph 74% 0.00 in 0 W/m2
21:20 19.9 °F 12.9 °F 30.40 in NE 6 mph 6 mph 74% 0.00 in 0 W/m2
21:25 19.8 °F 12.8 °F 30.40 in NNW 6 mph 6 mph 74% 0.00 in 0 W/m2
21:35 19.7 °F 13.1 °F 30.40 in WNW 5 mph 5 mph 75% 0.00 in 0 W/m2
21:40 19.6 °F 13 °F 30.40 in NNW 5 mph 5 mph 75% 0.00 in 0 W/m2
21:45 19.6 °F 13 °F 30.40 in WNW 4 mph 4 mph 75% 0.00 in 0 W/m2
21:50 19.5 °F 12.9 °F 30.41 in North 5 mph 5 mph 75% 0.00 in 0 W/m2
21:55 19.5 °F 13.2 °F 30.41 in NNW 5 mph 5 mph 76% 0.00 in 0 W/m2
22:00 19.5 °F 13.2 °F 30.41 in North 4 mph 5 mph 76% 0.00 in 0 W/m2
22:05 19.5 °F 13.2 °F 30.41 in NW 4 mph 5 mph 76% 0.00 in 0 W/m2
22:10 19.4 °F 12.8 °F 30.41 in NNW 5 mph 6 mph 75% 0.00 in 0 W/m2
22:15 19.3 °F 12.7 °F 30.42 in North 6 mph 6 mph 75% 0.00 in 0 W/m2
22:20 19.3 °F 12.7 °F 30.42 in NW 5 mph 9 mph 75% 0.00 in 0 W/m2
22:25 19.2 °F 12.6 °F 30.42 in NW 5 mph 9 mph 75% 0.00 in 0 W/m2
22:30 19.2 °F 12.6 °F 30.42 in NNW 4 mph 6 mph 75% 0.00 in 0 W/m2
22:40 19.1 °F 12.2 °F 30.42 in NW 4 mph 4 mph 74% 0.00 in 0 W/m2
22:45 19.1 °F 12.5 °F 30.42 in WNW 4 mph 4 mph 75% 0.00 in 0 W/m2
22:50 19 °F 12.1 °F 30.42 in WNW 5 mph 8 mph 74% 0.00 in 0 W/m2
22:55 19 °F 11.8 °F 30.42 in North 5 mph 8 mph 73% 0.00 in 0 W/m2
23:00 18.9 °F 11.7 °F 30.43 in West 6 mph 6 mph 73% 0.00 in 0 W/m2
23:05 18.9 °F 11.7 °F 30.43 in NNW 6 mph 6 mph 73% 0.00 in 0 W/m2
23:10 18.8 °F 11.6 °F 30.43 in NW 4 mph 4 mph 73% 0.00 in 0 W/m2
23:15 18.8 °F 11.9 °F 30.43 in NW 3 mph 4 mph 74% 0.00 in 0 W/m2
23:20 18.8 °F 12.2 °F 30.43 in NNW 4 mph 4 mph 75% 0.00 in 0 W/m2
23:25 18.8 °F 12.2 °F 30.43 in NNW 5 mph 5 mph 75% 0.00 in 0 W/m2
23:30 18.7 °F 11.8 °F 30.43 in North 5 mph 5 mph 74% 0.00 in 0 W/m2
23:35 18.7 °F 11.8 °F 30.44 in NNW 5 mph 5 mph 74% 0.00 in 0 W/m2
23:40 18.7 °F 11.8 °F 30.44 in North 4 mph 4 mph 74% 0.00 in 0 W/m2
23:45 18.6 °F 11.7 °F 30.44 in North 4 mph 10 mph 74% 0.00 in 0 W/m2
23:50 18.6 °F 12 °F 30.44 in North 5 mph 8 mph 75% 0.00 in 0 W/m2
23:55 18.6 °F 11.7 °F 30.44 in North 5 mph 8 mph 74% 0.00 in 0 W/m2
Sand Point, Michigan, USA
Compliments of Weather Underground - 2 mb